Northfield, MN (55057)

3:03 AM CST on February 07, 2016 (GMT -0600)
Northfield Linden PWS | | Change Station
CLOSE
Current Station
Personal Weather Station
Location: Northfield, MN
Elevation: 928 ft
Nearby Weather Stations
Active Advisory: Winter Weather Advisory

Elev 928 ft 44.45 °N, 93.16 °W | Updated 5 minutes ago

Overcast
Overcast
31.8 °F
Feels Like 26 °F
N
5.8
Wind Variable Wind from SSW

Today
High -- | Low -- °F
--% Chance of Precip.
Yesterday
High -- | Low -- °F
Precip. -- in
Pressure 29.67 in
Visibility 10.0 miles
Clouds Scattered Clouds 8500 ft
Windchill 26 °F
Dew Point 29 °F
Humidity 88%
Rainfall 0.00 in
Snow Depth Not available.
7:24 AM 5:29 PM
Waning Crescent, 2% visible
METAR KSYN 070855Z AUTO 21009KT 10SM SCT085 00/M02 A2967 RMK AO2 T00031023
Pressure 29.67 in
Visibility 10.0 miles
Clouds Scattered Clouds 8500 ft
Windchill 26 °F
Dew Point 29 °F
Humidity 88%
Rainfall 0.00 in
Snow Depth Not available.
7:24 AM 5:29 PM
Waning Crescent, 2% visible
METAR KSYN 070855Z AUTO 21009KT 10SM SCT085 00/M02 A2967 RMK AO2 T00031023

10-Day Weather Forecast

Almanac

Astronomy

Feb. 07, 2016 Rise Set
Actual Time
Civil Twilight
Nautical Twilight
Astronomical Twilight
Moon
Length of Visible Light
Length of Day
Tomorrow will be .
, % of the Moon is Illuminated

Today's Extremes

State Highs State Lows

Community

WunderPhotos

Upload Photos

1,891,171 photos uploaded!

WunderBlog® & News

Nearby

Air Quality

  Air Quality AQ Index Pollutant
Not available.

Snow Depth

Station Depth Elevation

Earthquake Activity

City Distance Mag. Time & Date
Minimum magnitude displayed is 2.5.

Coastal Water Temperatures

Place Temperature

Stations

Nearby Weather Stations

Station Location Temp. Windchill Dew Point Humidity Wind Precip. Elev Updated Type
                   

Watches & Warnings

Winter Weather Advisory
Issued: 2:54 AM CST Feb. 7, 2016 – National Weather Service

... Winter Weather Advisory now in effect from 7 PM this evening
to noon CST Monday...

* expect snow to develop around 7 PM this evening and then
diminish around noon Monday.

* Total snow accumulations of up to 2 inches are expected.

* Winds gusting as high as 45 mph will cause areas of blowing
and drifting snow.

* Plan on slippery Road conditions.

Precautionary/preparedness actions...

A Winter Weather Advisory for snow and blowing snow means periods
of snow will cause primarily travel difficulties. Be prepared for
snow covered roads and limited visibilities... and use caution
while driving. The latest Road conditions for the state you are
calling from can be obtained by calling 5 1 1.


Jrb